sensor_id;sensor_type;location;lat;lon;timestamp;P1;durP1;ratioP1;P2;durP2;ratioP2
71836;SDS011;59686;51.716;7.016;2023-03-26T00:00:03;3.13;;;1.57;;
71836;SDS011;59686;51.716;7.016;2023-03-26T00:02:30;4.03;;;1.50;;
71836;SDS011;59686;51.716;7.016;2023-03-26T00:04:55;4.20;;;1.70;;
71836;SDS011;59686;51.716;7.016;2023-03-26T00:07:21;5.73;;;1.70;;
71836;SDS011;59686;51.716;7.016;2023-03-26T00:09:47;4.17;;;1.73;;
71836;SDS011;59686;51.716;7.016;2023-03-26T00:12:13;3.33;;;1.77;;
71836;SDS011;59686;51.716;7.016;2023-03-26T00:14:38;4.13;;;1.90;;
71836;SDS011;59686;51.716;7.016;2023-03-26T00:17:05;6.90;;;2.13;;
71836;SDS011;59686;51.716;7.016;2023-03-26T00:19:32;3.43;;;1.70;;
71836;SDS011;59686;51.716;7.016;2023-03-26T00:21:58;6.00;;;2.10;;
71836;SDS011;59686;51.716;7.016;2023-03-26T00:24:24;3.80;;;1.87;;
71836;SDS011;59686;51.716;7.016;2023-03-26T00:26:53;6.13;;;2.17;;
71836;SDS011;59686;51.716;7.016;2023-03-26T00:29:20;5.03;;;2.20;;
71836;SDS011;59686;51.716;7.016;2023-03-26T00:31:51;6.77;;;1.97;;
71836;SDS011;59686;51.716;7.016;2023-03-26T00:34:17;7.47;;;2.30;;
71836;SDS011;59686;51.716;7.016;2023-03-26T00:36:43;4.83;;;2.20;;
71836;SDS011;59686;51.716;7.016;2023-03-26T00:39:11;5.57;;;2.63;;
71836;SDS011;59686;51.716;7.016;2023-03-26T00:41:38;8.33;;;2.50;;
71836;SDS011;59686;51.716;7.016;2023-03-26T00:44:07;8.27;;;2.40;;
71836;SDS011;59686;51.716;7.016;2023-03-26T00:46:33;5.63;;;2.50;;
71836;SDS011;59686;51.716;7.016;2023-03-26T00:48:59;6.47;;;2.70;;
71836;SDS011;59686;51.716;7.016;2023-03-26T00:51:28;9.30;;;3.07;;
71836;SDS011;59686;51.716;7.016;2023-03-26T00:53:54;6.97;;;3.07;;
71836;SDS011;59686;51.716;7.016;2023-03-26T00:56:21;11.17;;;2.77;;
71836;SDS011;59686;51.716;7.016;2023-03-26T00:58:46;8.37;;;2.53;;
71836;SDS011;59686;51.716;7.016;2023-03-26T01:01:15;11.53;;;3.30;;
71836;SDS011;59686;51.716;7.016;2023-03-26T01:03:44;12.50;;;3.20;;
71836;SDS011;59686;51.716;7.016;2023-03-26T01:06:15;6.90;;;2.77;;
71836;SDS011;59686;51.716;7.016;2023-03-26T01:08:51;9.27;;;3.00;;
71836;SDS011;59686;51.716;7.016;2023-03-26T01:11:24;12.23;;;2.93;;
71836;SDS011;59686;51.716;7.016;2023-03-26T01:14:04;13.00;;;3.23;;
71836;SDS011;59686;51.716;7.016;2023-03-26T01:16:41;8.13;;;2.73;;
71836;SDS011;59686;51.716;7.016;2023-03-26T01:19:18;12.73;;;3.30;;
71836;SDS011;59686;51.716;7.016;2023-03-26T01:21:48;6.30;;;3.20;;
71836;SDS011;59686;51.716;7.016;2023-03-26T01:24:13;12.30;;;3.40;;
71836;SDS011;59686;51.716;7.016;2023-03-26T01:29:11;15.60;;;4.17;;
71836;SDS011;59686;51.716;7.016;2023-03-26T01:42:39;10.73;;;3.57;;
71836;SDS011;59686;51.716;7.016;2023-03-26T01:45:14;12.37;;;3.43;;
71836;SDS011;59686;51.716;7.016;2023-03-26T01:47:43;13.37;;;3.97;;
71836;SDS011;59686;51.716;7.016;2023-03-26T01:50:10;8.87;;;3.07;;
71836;SDS011;59686;51.716;7.016;2023-03-26T01:52:36;12.53;;;3.70;;
71836;SDS011;59686;51.716;7.016;2023-03-26T01:55:03;12.83;;;3.60;;
71836;SDS011;59686;51.716;7.016;2023-03-26T02:05:51;9.90;;;3.40;;
71836;SDS011;59686;51.716;7.016;2023-03-26T02:11:14;13.27;;;3.90;;
71836;SDS011;59686;51.716;7.016;2023-03-26T02:13:41;13.57;;;3.97;;
71836;SDS011;59686;51.716;7.016;2023-03-26T02:16:11;8.93;;;3.17;;
71836;SDS011;59686;51.716;7.016;2023-03-26T02:18:40;10.43;;;3.57;;
71836;SDS011;59686;51.716;7.016;2023-03-26T02:21:23;10.93;;;3.40;;
71836;SDS011;59686;51.716;7.016;2023-03-26T02:23:51;12.83;;;3.30;;
71836;SDS011;59686;51.716;7.016;2023-03-26T02:26:29;14.53;;;3.43;;
71836;SDS011;59686;51.716;7.016;2023-03-26T02:28:56;6.77;;;3.20;;
71836;SDS011;59686;51.716;7.016;2023-03-26T02:31:22;9.20;;;2.93;;
71836;SDS011;59686;51.716;7.016;2023-03-26T02:33:54;12.73;;;3.07;;
71836;SDS011;59686;51.716;7.016;2023-03-26T02:36:20;9.43;;;3.23;;
71836;SDS011;59686;51.716;7.016;2023-03-26T02:38:51;9.77;;;3.20;;
71836;SDS011;59686;51.716;7.016;2023-03-26T02:41:17;11.30;;;3.43;;
71836;SDS011;59686;51.716;7.016;2023-03-26T02:43:42;11.57;;;3.27;;
71836;SDS011;59686;51.716;7.016;2023-03-26T02:46:08;11.53;;;3.70;;
71836;SDS011;59686;51.716;7.016;2023-03-26T02:48:34;11.93;;;3.30;;
71836;SDS011;59686;51.716;7.016;2023-03-26T02:51:00;11.70;;;3.73;;
71836;SDS011;59686;51.716;7.016;2023-03-26T02:53:26;10.47;;;3.30;;
71836;SDS011;59686;51.716;7.016;2023-03-26T02:55:57;11.87;;;3.73;;
71836;SDS011;59686;51.716;7.016;2023-03-26T02:58:25;13.40;;;3.77;;
71836;SDS011;59686;51.716;7.016;2023-03-26T03:00:51;9.77;;;3.93;;
71836;SDS011;59686;51.716;7.016;2023-03-26T03:03:23;11.13;;;3.70;;
71836;SDS011;59686;51.716;7.016;2023-03-26T03:05:51;12.47;;;3.40;;
71836;SDS011;59686;51.716;7.016;2023-03-26T03:08:18;9.90;;;3.80;;
71836;SDS011;59686;51.716;7.016;2023-03-26T03:10:58;9.07;;;3.27;;
71836;SDS011;59686;51.716;7.016;2023-03-26T03:13:33;12.90;;;3.60;;
71836;SDS011;59686;51.716;7.016;2023-03-26T03:15:59;10.73;;;3.80;;
71836;SDS011;59686;51.716;7.016;2023-03-26T03:18:25;11.80;;;3.33;;
71836;SDS011;59686;51.716;7.016;2023-03-26T03:20:50;14.63;;;3.97;;
71836;SDS011;59686;51.716;7.016;2023-03-26T03:23:17;10.03;;;3.63;;
71836;SDS011;59686;51.716;7.016;2023-03-26T03:25:44;11.50;;;3.07;;
71836;SDS011;59686;51.716;7.016;2023-03-26T03:28:10;15.90;;;4.40;;
71836;SDS011;59686;51.716;7.016;2023-03-26T03:30:36;11.37;;;3.20;;
71836;SDS011;59686;51.716;7.016;2023-03-26T03:33:02;12.53;;;3.43;;
71836;SDS011;59686;51.716;7.016;2023-03-26T03:35:28;10.80;;;3.20;;
71836;SDS011;59686;51.716;7.016;2023-03-26T03:37:55;12.67;;;3.43;;
71836;SDS011;59686;51.716;7.016;2023-03-26T03:40:22;17.53;;;4.50;;
71836;SDS011;59686;51.716;7.016;2023-03-26T03:42:48;11.03;;;3.33;;
71836;SDS011;59686;51.716;7.016;2023-03-26T03:45:14;13.70;;;3.80;;
71836;SDS011;59686;51.716;7.016;2023-03-26T03:47:39;16.13;;;3.60;;
71836;SDS011;59686;51.716;7.016;2023-03-26T03:50:05;11.03;;;3.60;;
71836;SDS011;59686;51.716;7.016;2023-03-26T03:52:33;12.97;;;3.53;;
71836;SDS011;59686;51.716;7.016;2023-03-26T03:54:58;14.20;;;3.70;;
71836;SDS011;59686;51.716;7.016;2023-03-26T03:57:27;11.60;;;3.67;;
71836;SDS011;59686;51.716;7.016;2023-03-26T03:59:53;16.17;;;3.80;;
71836;SDS011;59686;51.716;7.016;2023-03-26T04:02:22;10.23;;;3.83;;
71836;SDS011;59686;51.716;7.016;2023-03-26T04:04:54;12.57;;;3.33;;
71836;SDS011;59686;51.716;7.016;2023-03-26T04:07:24;11.93;;;3.13;;
71836;SDS011;59686;51.716;7.016;2023-03-26T04:09:51;17.10;;;3.70;;
71836;SDS011;59686;51.716;7.016;2023-03-26T04:12:17;11.80;;;3.13;;
71836;SDS011;59686;51.716;7.016;2023-03-26T04:14:43;7.57;;;3.27;;
71836;SDS011;59686;51.716;7.016;2023-03-26T04:17:09;12.77;;;3.80;;
71836;SDS011;59686;51.716;7.016;2023-03-26T04:19:37;10.47;;;3.20;;
71836;SDS011;59686;51.716;7.016;2023-03-26T04:22:04;10.90;;;3.10;;
71836;SDS011;59686;51.716;7.016;2023-03-26T04:24:30;13.43;;;3.20;;
71836;SDS011;59686;51.716;7.016;2023-03-26T04:27:03;11.97;;;2.97;;
71836;SDS011;59686;51.716;7.016;2023-03-26T04:29:32;8.60;;;3.23;;
71836;SDS011;59686;51.716;7.016;2023-03-26T04:32:07;12.20;;;3.53;;
71836;SDS011;59686;51.716;7.016;2023-03-26T04:34:54;10.47;;;3.33;;
71836;SDS011;59686;51.716;7.016;2023-03-26T04:39:52;9.83;;;3.00;;
71836;SDS011;59686;51.716;7.016;2023-03-26T04:42:19;10.47;;;3.30;;
71836;SDS011;59686;51.716;7.016;2023-03-26T04:44:46;8.10;;;3.00;;
71836;SDS011;59686;51.716;7.016;2023-03-26T04:47:15;10.27;;;3.50;;
71836;SDS011;59686;51.716;7.016;2023-03-26T04:49:42;11.60;;;3.37;;
71836;SDS011;59686;51.716;7.016;2023-03-26T04:52:09;8.10;;;3.03;;
71836;SDS011;59686;51.716;7.016;2023-03-26T04:54:36;11.20;;;3.73;;
71836;SDS011;59686;51.716;7.016;2023-03-26T04:57:02;10.07;;;3.10;;
71836;SDS011;59686;51.716;7.016;2023-03-26T04:59:54;9.17;;;3.17;;
71836;SDS011;59686;51.716;7.016;2023-03-26T05:02:20;9.33;;;3.00;;
71836;SDS011;59686;51.716;7.016;2023-03-26T05:04:46;7.83;;;2.60;;
71836;SDS011;59686;51.716;7.016;2023-03-26T05:07:16;8.73;;;2.60;;
71836;SDS011;59686;51.716;7.016;2023-03-26T05:09:44;10.23;;;2.87;;
71836;SDS011;59686;51.716;7.016;2023-03-26T05:12:10;9.77;;;3.20;;
71836;SDS011;59686;51.716;7.016;2023-03-26T05:14:35;10.53;;;3.57;;
71836;SDS011;59686;51.716;7.016;2023-03-26T05:17:02;10.17;;;3.10;;
71836;SDS011;59686;51.716;7.016;2023-03-26T05:19:35;9.37;;;3.00;;
71836;SDS011;59686;51.716;7.016;2023-03-26T05:22:02;6.37;;;2.63;;
71836;SDS011;59686;51.716;7.016;2023-03-26T05:24:27;7.20;;;2.67;;
71836;SDS011;59686;51.716;7.016;2023-03-26T05:26:53;9.77;;;3.20;;
71836;SDS011;59686;51.716;7.016;2023-03-26T05:29:20;9.73;;;3.27;;
71836;SDS011;59686;51.716;7.016;2023-03-26T05:31:49;9.17;;;3.13;;
71836;SDS011;59686;51.716;7.016;2023-03-26T05:34:15;8.13;;;3.00;;
71836;SDS011;59686;51.716;7.016;2023-03-26T05:36:40;11.70;;;3.43;;
71836;SDS011;59686;51.716;7.016;2023-03-26T05:39:06;10.93;;;3.23;;
71836;SDS011;59686;51.716;7.016;2023-03-26T05:41:33;9.30;;;3.30;;
71836;SDS011;59686;51.716;7.016;2023-03-26T05:43:58;9.17;;;3.17;;
71836;SDS011;59686;51.716;7.016;2023-03-26T05:46:24;7.27;;;2.63;;
71836;SDS011;59686;51.716;7.016;2023-03-26T05:48:51;10.00;;;3.30;;
71836;SDS011;59686;51.716;7.016;2023-03-26T05:51:18;7.50;;;3.10;;
71836;SDS011;59686;51.716;7.016;2023-03-26T05:53:44;8.37;;;3.13;;
71836;SDS011;59686;51.716;7.016;2023-03-26T05:56:10;8.03;;;3.27;;
71836;SDS011;59686;51.716;7.016;2023-03-26T05:58:36;11.70;;;3.20;;
71836;SDS011;59686;51.716;7.016;2023-03-26T06:01:04;9.73;;;3.23;;
71836;SDS011;59686;51.716;7.016;2023-03-26T06:03:33;11.87;;;3.10;;
71836;SDS011;59686;51.716;7.016;2023-03-26T06:06:05;9.90;;;3.23;;
71836;SDS011;59686;51.716;7.016;2023-03-26T06:08:43;9.13;;;3.20;;
71836;SDS011;59686;51.716;7.016;2023-03-26T06:11:16;10.03;;;3.07;;
71836;SDS011;59686;51.716;7.016;2023-03-26T06:13:43;8.07;;;3.23;;
71836;SDS011;59686;51.716;7.016;2023-03-26T06:16:10;10.97;;;3.47;;
71836;SDS011;59686;51.716;7.016;2023-03-26T06:18:37;9.13;;;3.27;;
71836;SDS011;59686;51.716;7.016;2023-03-26T06:21:03;5.27;;;2.70;;
71836;SDS011;59686;51.716;7.016;2023-03-26T06:23:30;10.60;;;3.10;;
71836;SDS011;59686;51.716;7.016;2023-03-26T06:25:56;9.50;;;3.23;;
71836;SDS011;59686;51.716;7.016;2023-03-26T06:28:22;11.40;;;3.13;;
71836;SDS011;59686;51.716;7.016;2023-03-26T06:30:48;10.27;;;3.10;;
71836;SDS011;59686;51.716;7.016;2023-03-26T06:33:14;10.30;;;3.47;;
71836;SDS011;59686;51.716;7.016;2023-03-26T06:35:40;7.33;;;2.80;;
71836;SDS011;59686;51.716;7.016;2023-03-26T06:38:08;9.80;;;2.87;;
71836;SDS011;59686;51.716;7.016;2023-03-26T06:40:34;11.70;;;3.20;;
71836;SDS011;59686;51.716;7.016;2023-03-26T06:42:59;7.90;;;3.33;;
71836;SDS011;59686;51.716;7.016;2023-03-26T06:45:26;9.17;;;2.80;;
71836;SDS011;59686;51.716;7.016;2023-03-26T06:47:52;11.50;;;3.40;;
71836;SDS011;59686;51.716;7.016;2023-03-26T06:50:18;9.07;;;2.83;;
71836;SDS011;59686;51.716;7.016;2023-03-26T06:52:43;9.87;;;3.27;;
71836;SDS011;59686;51.716;7.016;2023-03-26T06:55:09;9.73;;;3.07;;
71836;SDS011;59686;51.716;7.016;2023-03-26T06:57:35;9.53;;;3.23;;
71836;SDS011;59686;51.716;7.016;2023-03-26T07:00:02;8.30;;;3.07;;
71836;SDS011;59686;51.716;7.016;2023-03-26T07:05:00;10.63;;;3.13;;
71836;SDS011;59686;51.716;7.016;2023-03-26T07:07:25;7.97;;;3.10;;
71836;SDS011;59686;51.716;7.016;2023-03-26T07:09:51;10.13;;;3.60;;
71836;SDS011;59686;51.716;7.016;2023-03-26T07:12:17;12.90;;;3.60;;
71836;SDS011;59686;51.716;7.016;2023-03-26T07:14:42;10.77;;;3.40;;
71836;SDS011;59686;51.716;7.016;2023-03-26T07:17:09;8.90;;;3.00;;
71836;SDS011;59686;51.716;7.016;2023-03-26T07:19:34;12.27;;;3.50;;
71836;SDS011;59686;51.716;7.016;2023-03-26T07:22:00;7.47;;;2.93;;
71836;SDS011;59686;51.716;7.016;2023-03-26T07:24:27;9.37;;;3.20;;
71836;SDS011;59686;51.716;7.016;2023-03-26T07:27:13;12.33;;;3.63;;
71836;SDS011;59686;51.716;7.016;2023-03-26T07:30:09;8.23;;;2.90;;
71836;SDS011;59686;51.716;7.016;2023-03-26T07:35:47;8.97;;;3.30;;
71836;SDS011;59686;51.716;7.016;2023-03-26T07:38:26;8.47;;;3.23;;
71836;SDS011;59686;51.716;7.016;2023-03-26T07:46:12;10.03;;;3.20;;
71836;SDS011;59686;51.716;7.016;2023-03-26T07:48:40;6.70;;;2.90;;
71836;SDS011;59686;51.716;7.016;2023-03-26T07:51:09;7.77;;;2.73;;
71836;SDS011;59686;51.716;7.016;2023-03-26T07:53:35;10.17;;;2.70;;
71836;SDS011;59686;51.716;7.016;2023-03-26T07:56:05;9.37;;;3.20;;
71836;SDS011;59686;51.716;7.016;2023-03-26T08:07:37;8.77;;;3.50;;
71836;SDS011;59686;51.716;7.016;2023-03-26T08:10:06;9.07;;;3.20;;
71836;SDS011;59686;51.716;7.016;2023-03-26T08:15:09;9.97;;;3.37;;
71836;SDS011;59686;51.716;7.016;2023-03-26T08:18:13;8.87;;;3.43;;
71836;SDS011;59686;51.716;7.016;2023-03-26T08:21:05;10.07;;;3.30;;
71836;SDS011;59686;51.716;7.016;2023-03-26T08:23:41;5.33;;;2.60;;
71836;SDS011;59686;51.716;7.016;2023-03-26T08:29:19;8.67;;;2.93;;
71836;SDS011;59686;51.716;7.016;2023-03-26T08:31:52;10.97;;;3.93;;
71836;SDS011;59686;51.716;7.016;2023-03-26T08:34:24;12.23;;;4.20;;
71836;SDS011;59686;51.716;7.016;2023-03-26T08:36:50;9.10;;;3.53;;
71836;SDS011;59686;51.716;7.016;2023-03-26T08:39:16;10.93;;;4.00;;
71836;SDS011;59686;51.716;7.016;2023-03-26T08:45:28;11.57;;;4.13;;
71836;SDS011;59686;51.716;7.016;2023-03-26T09:02:50;13.67;;;3.90;;
71836;SDS011;59686;51.716;7.016;2023-03-26T09:13:53;10.30;;;5.20;;
71836;SDS011;59686;51.716;7.016;2023-03-26T09:38:44;13.17;;;6.80;;
71836;SDS011;59686;51.716;7.016;2023-03-26T09:44:37;12.53;;;6.73;;
71836;SDS011;59686;51.716;7.016;2023-03-26T10:00:57;10.53;;;5.30;;
71836;SDS011;59686;51.716;7.016;2023-03-26T10:03:40;12.77;;;5.33;;
71836;SDS011;59686;51.716;7.016;2023-03-26T10:17:42;10.13;;;5.13;;
71836;SDS011;59686;51.716;7.016;2023-03-26T10:34:03;10.70;;;4.90;;
71836;SDS011;59686;51.716;7.016;2023-03-26T10:36:36;8.83;;;4.00;;
71836;SDS011;59686;51.716;7.016;2023-03-26T10:39:30;7.87;;;4.37;;
71836;SDS011;59686;51.716;7.016;2023-03-26T10:45:13;10.17;;;3.97;;
71836;SDS011;59686;51.716;7.016;2023-03-26T10:48:23;8.27;;;4.40;;
71836;SDS011;59686;51.716;7.016;2023-03-26T10:53:54;10.70;;;4.50;;
71836;SDS011;59686;51.716;7.016;2023-03-26T10:56:34;8.23;;;3.70;;
71836;SDS011;59686;51.716;7.016;2023-03-26T10:59:07;11.27;;;3.50;;
71836;SDS011;59686;51.716;7.016;2023-03-26T11:01:45;7.73;;;3.70;;
71836;SDS011;59686;51.716;7.016;2023-03-26T11:04:23;8.23;;;3.70;;
71836;SDS011;59686;51.716;7.016;2023-03-26T11:09:41;6.37;;;3.43;;
71836;SDS011;59686;51.716;7.016;2023-03-26T11:21:17;6.13;;;2.80;;
71836;SDS011;59686;51.716;7.016;2023-03-26T11:23:54;5.73;;;2.80;;
71836;SDS011;59686;51.716;7.016;2023-03-26T11:26:42;7.30;;;2.77;;
71836;SDS011;59686;51.716;7.016;2023-03-26T11:32:06;4.90;;;2.43;;
71836;SDS011;59686;51.716;7.016;2023-03-26T11:34:37;5.20;;;2.70;;
71836;SDS011;59686;51.716;7.016;2023-03-26T11:37:14;3.87;;;2.43;;
71836;SDS011;59686;51.716;7.016;2023-03-26T11:39:48;7.13;;;2.73;;
71836;SDS011;59686;51.716;7.016;2023-03-26T11:42:17;3.80;;;2.17;;
71836;SDS011;59686;51.716;7.016;2023-03-26T11:44:49;5.93;;;2.40;;
71836;SDS011;59686;51.716;7.016;2023-03-26T11:47:20;4.70;;;2.23;;
71836;SDS011;59686;51.716;7.016;2023-03-26T11:49:50;3.13;;;2.00;;
71836;SDS011;59686;51.716;7.016;2023-03-26T11:52:20;4.50;;;2.30;;
71836;SDS011;59686;51.716;7.016;2023-03-26T11:54:46;3.90;;;2.00;;
71836;SDS011;59686;51.716;7.016;2023-03-26T11:57:13;6.17;;;2.60;;
71836;SDS011;59686;51.716;7.016;2023-03-26T11:59:51;3.77;;;1.70;;
71836;SDS011;59686;51.716;7.016;2023-03-26T12:02:24;4.33;;;2.10;;
71836;SDS011;59686;51.716;7.016;2023-03-26T12:05:02;2.87;;;1.80;;
71836;SDS011;59686;51.716;7.016;2023-03-26T12:07:49;4.63;;;1.87;;
71836;SDS011;59686;51.716;7.016;2023-03-26T12:16:25;4.13;;;1.87;;
71836;SDS011;59686;51.716;7.016;2023-03-26T12:18:46;5.10;;;1.83;;
71836;SDS011;59686;51.716;7.016;2023-03-26T12:21:27;3.33;;;1.60;;
71836;SDS011;59686;51.716;7.016;2023-03-26T12:23:58;3.40;;;1.67;;
71836;SDS011;59686;51.716;7.016;2023-03-26T12:29:12;2.60;;;1.53;;
71836;SDS011;59686;51.716;7.016;2023-03-26T12:31:40;3.40;;;1.60;;
71836;SDS011;59686;51.716;7.016;2023-03-26T12:34:18;3.20;;;1.70;;
71836;SDS011;59686;51.716;7.016;2023-03-26T12:36:56;2.70;;;1.73;;
71836;SDS011;59686;51.716;7.016;2023-03-26T12:39:33;4.90;;;2.20;;
71836;SDS011;59686;51.716;7.016;2023-03-26T12:42:02;2.50;;;1.53;;
71836;SDS011;59686;51.716;7.016;2023-03-26T12:44:30;2.27;;;1.63;;
71836;SDS011;59686;51.716;7.016;2023-03-26T12:47:27;2.53;;;1.67;;
71836;SDS011;59686;51.716;7.016;2023-03-26T12:49:56;2.90;;;2.00;;
71836;SDS011;59686;51.716;7.016;2023-03-26T13:00:47;5.13;;;1.83;;
71836;SDS011;59686;51.716;7.016;2023-03-26T13:03:18;2.77;;;1.80;;
71836;SDS011;59686;51.716;7.016;2023-03-26T13:08:51;2.87;;;1.90;;
71836;SDS011;59686;51.716;7.016;2023-03-26T13:17:19;2.67;;;1.70;;
71836;SDS011;59686;51.716;7.016;2023-03-26T13:31:33;3.00;;;1.80;;
71836;SDS011;59686;51.716;7.016;2023-03-26T13:34:08;2.87;;;1.80;;
71836;SDS011;59686;51.716;7.016;2023-03-26T13:44:54;2.80;;;1.60;;
71836;SDS011;59686;51.716;7.016;2023-03-26T13:47:35;2.53;;;1.50;;
71836;SDS011;59686;51.716;7.016;2023-03-26T13:50:06;2.07;;;1.53;;
71836;SDS011;59686;51.716;7.016;2023-03-26T13:55:22;3.50;;;1.90;;
71836;SDS011;59686;51.716;7.016;2023-03-26T14:00:49;3.33;;;1.77;;
71836;SDS011;59686;51.716;7.016;2023-03-26T14:09:26;2.47;;;1.60;;
71836;SDS011;59686;51.716;7.016;2023-03-26T14:12:13;3.37;;;1.90;;
71836;SDS011;59686;51.716;7.016;2023-03-26T14:18:34;3.07;;;1.73;;
71836;SDS011;59686;51.716;7.016;2023-03-26T14:21:11;3.33;;;1.70;;
71836;SDS011;59686;51.716;7.016;2023-03-26T14:29:28;3.63;;;1.70;;
71836;SDS011;59686;51.716;7.016;2023-03-26T14:35:19;3.13;;;2.13;;
71836;SDS011;59686;51.716;7.016;2023-03-26T14:38:05;3.63;;;2.23;;
71836;SDS011;59686;51.716;7.016;2023-03-26T14:40:54;2.83;;;1.90;;
71836;SDS011;59686;51.716;7.016;2023-03-26T14:43:48;2.23;;;1.77;;
71836;SDS011;59686;51.716;7.016;2023-03-26T14:46:49;3.33;;;1.80;;
71836;SDS011;59686;51.716;7.016;2023-03-26T14:55:24;2.93;;;1.87;;
71836;SDS011;59686;51.716;7.016;2023-03-26T14:58:20;2.73;;;2.00;;
71836;SDS011;59686;51.716;7.016;2023-03-26T15:08:58;4.13;;;2.30;;
71836;SDS011;59686;51.716;7.016;2023-03-26T15:20:34;3.67;;;2.50;;
71836;SDS011;59686;51.716;7.016;2023-03-26T15:50:53;10.87;;;3.07;;
71836;SDS011;59686;51.716;7.016;2023-03-26T15:56:23;10.30;;;3.47;;
71836;SDS011;59686;51.716;7.016;2023-03-26T15:59:21;7.40;;;3.03;;
71836;SDS011;59686;51.716;7.016;2023-03-26T16:04:44;8.27;;;2.93;;
71836;SDS011;59686;51.716;7.016;2023-03-26T16:10:13;9.70;;;3.17;;
71836;SDS011;59686;51.716;7.016;2023-03-26T16:23:55;7.20;;;2.90;;
71836;SDS011;59686;51.716;7.016;2023-03-26T16:29:11;11.03;;;3.00;;
71836;SDS011;59686;51.716;7.016;2023-03-26T16:34:56;6.90;;;2.70;;
71836;SDS011;59686;51.716;7.016;2023-03-26T16:37:38;8.50;;;3.10;;
71836;SDS011;59686;51.716;7.016;2023-03-26T16:45:37;8.37;;;3.67;;
71836;SDS011;59686;51.716;7.016;2023-03-26T16:48:16;8.63;;;2.90;;
71836;SDS011;59686;51.716;7.016;2023-03-26T16:56:44;7.70;;;3.20;;
71836;SDS011;59686;51.716;7.016;2023-03-26T16:59:44;10.30;;;2.90;;
71836;SDS011;59686;51.716;7.016;2023-03-26T17:11:18;7.33;;;3.10;;
71836;SDS011;59686;51.716;7.016;2023-03-26T17:14:08;8.73;;;3.17;;
71836;SDS011;59686;51.716;7.016;2023-03-26T17:22:33;7.37;;;3.43;;
71836;SDS011;59686;51.716;7.016;2023-03-26T17:28:10;8.67;;;3.17;;
71836;SDS011;59686;51.716;7.016;2023-03-26T17:33:27;10.23;;;3.13;;
71836;SDS011;59686;51.716;7.016;2023-03-26T17:41:08;6.73;;;3.20;;
71836;SDS011;59686;51.716;7.016;2023-03-26T17:43:51;13.33;;;3.53;;
71836;SDS011;59686;51.716;7.016;2023-03-26T17:46:36;6.33;;;2.83;;
71836;SDS011;59686;51.716;7.016;2023-03-26T17:51:56;6.47;;;3.13;;
71836;SDS011;59686;51.716;7.016;2023-03-26T17:54:33;8.93;;;2.90;;
71836;SDS011;59686;51.716;7.016;2023-03-26T17:57:39;8.60;;;2.57;;
71836;SDS011;59686;51.716;7.016;2023-03-26T18:00:24;6.13;;;2.90;;
71836;SDS011;59686;51.716;7.016;2023-03-26T18:03:19;5.07;;;2.60;;
71836;SDS011;59686;51.716;7.016;2023-03-26T18:05:54;5.60;;;2.60;;
71836;SDS011;59686;51.716;7.016;2023-03-26T18:08:37;6.67;;;2.73;;
71836;SDS011;59686;51.716;7.016;2023-03-26T18:11:18;10.07;;;2.93;;
71836;SDS011;59686;51.716;7.016;2023-03-26T18:16:48;8.03;;;2.60;;
71836;SDS011;59686;51.716;7.016;2023-03-26T18:19:18;8.57;;;3.20;;
71836;SDS011;59686;51.716;7.016;2023-03-26T18:21:50;6.00;;;2.50;;
71836;SDS011;59686;51.716;7.016;2023-03-26T18:24:21;5.67;;;2.50;;
71836;SDS011;59686;51.716;7.016;2023-03-26T18:29:32;8.60;;;2.67;;
71836;SDS011;59686;51.716;7.016;2023-03-26T18:32:00;6.43;;;3.03;;
71836;SDS011;59686;51.716;7.016;2023-03-26T18:34:55;7.90;;;2.40;;
71836;SDS011;59686;51.716;7.016;2023-03-26T18:37:23;10.17;;;2.77;;
71836;SDS011;59686;51.716;7.016;2023-03-26T18:42:21;6.90;;;2.60;;
71836;SDS011;59686;51.716;7.016;2023-03-26T18:44:48;8.83;;;2.63;;
71836;SDS011;59686;51.716;7.016;2023-03-26T18:47:17;6.83;;;2.30;;
71836;SDS011;59686;51.716;7.016;2023-03-26T18:49:44;8.53;;;2.80;;
71836;SDS011;59686;51.716;7.016;2023-03-26T18:52:12;8.17;;;2.87;;
71836;SDS011;59686;51.716;7.016;2023-03-26T18:54:43;9.03;;;2.67;;
71836;SDS011;59686;51.716;7.016;2023-03-26T18:57:18;5.90;;;2.40;;
71836;SDS011;59686;51.716;7.016;2023-03-26T18:59:47;7.27;;;2.30;;
71836;SDS011;59686;51.716;7.016;2023-03-26T19:02:15;8.07;;;2.60;;
71836;SDS011;59686;51.716;7.016;2023-03-26T19:04:41;8.30;;;2.20;;
71836;SDS011;59686;51.716;7.016;2023-03-26T19:07:11;12.60;;;2.43;;
71836;SDS011;59686;51.716;7.016;2023-03-26T19:09:39;6.37;;;2.23;;
71836;SDS011;59686;51.716;7.016;2023-03-26T19:12:19;8.17;;;2.37;;
71836;SDS011;59686;51.716;7.016;2023-03-26T19:15:08;8.63;;;2.50;;
71836;SDS011;59686;51.716;7.016;2023-03-26T19:17:43;7.77;;;2.93;;
71836;SDS011;59686;51.716;7.016;2023-03-26T19:20:16;10.67;;;2.67;;
71836;SDS011;59686;51.716;7.016;2023-03-26T19:22:45;7.30;;;2.23;;
71836;SDS011;59686;51.716;7.016;2023-03-26T19:25:22;8.87;;;2.57;;
71836;SDS011;59686;51.716;7.016;2023-03-26T19:27:52;12.40;;;2.30;;
71836;SDS011;59686;51.716;7.016;2023-03-26T19:30:25;8.00;;;2.17;;
71836;SDS011;59686;51.716;7.016;2023-03-26T19:33:01;8.30;;;2.30;;
71836;SDS011;59686;51.716;7.016;2023-03-26T19:35:35;7.10;;;2.40;;
71836;SDS011;59686;51.716;7.016;2023-03-26T19:38:11;10.87;;;2.73;;
71836;SDS011;59686;51.716;7.016;2023-03-26T19:40:42;7.40;;;2.23;;
71836;SDS011;59686;51.716;7.016;2023-03-26T19:43:12;6.13;;;2.03;;
71836;SDS011;59686;51.716;7.016;2023-03-26T19:45:38;7.40;;;2.20;;
71836;SDS011;59686;51.716;7.016;2023-03-26T19:48:07;13.03;;;2.70;;
71836;SDS011;59686;51.716;7.016;2023-03-26T19:50:34;7.87;;;2.13;;
71836;SDS011;59686;51.716;7.016;2023-03-26T19:53:13;9.73;;;2.40;;
71836;SDS011;59686;51.716;7.016;2023-03-26T19:56:43;9.07;;;2.40;;
71836;SDS011;59686;51.716;7.016;2023-03-26T19:58:39;6.47;;;2.10;;
71836;SDS011;59686;51.716;7.016;2023-03-26T20:01:09;6.50;;;2.17;;
71836;SDS011;59686;51.716;7.016;2023-03-26T20:03:50;6.67;;;1.97;;
71836;SDS011;59686;51.716;7.016;2023-03-26T20:06:19;8.53;;;1.83;;
71836;SDS011;59686;51.716;7.016;2023-03-26T20:08:47;9.20;;;2.80;;
71836;SDS011;59686;51.716;7.016;2023-03-26T20:11:20;8.00;;;2.20;;
71836;SDS011;59686;51.716;7.016;2023-03-26T20:13:48;9.63;;;2.03;;
71836;SDS011;59686;51.716;7.016;2023-03-26T20:18:43;6.73;;;2.37;;
71836;SDS011;59686;51.716;7.016;2023-03-26T20:21:10;7.13;;;2.07;;
71836;SDS011;59686;51.716;7.016;2023-03-26T20:23:36;8.33;;;2.00;;
71836;SDS011;59686;51.716;7.016;2023-03-26T20:26:03;7.97;;;2.20;;
71836;SDS011;59686;51.716;7.016;2023-03-26T20:28:29;9.63;;;2.53;;
71836;SDS011;59686;51.716;7.016;2023-03-26T20:30:55;6.87;;;2.17;;
71836;SDS011;59686;51.716;7.016;2023-03-26T20:33:24;8.67;;;2.20;;
71836;SDS011;59686;51.716;7.016;2023-03-26T20:35:51;6.60;;;2.00;;
71836;SDS011;59686;51.716;7.016;2023-03-26T20:38:21;6.20;;;1.87;;
71836;SDS011;59686;51.716;7.016;2023-03-26T20:40:47;8.87;;;2.20;;
71836;SDS011;59686;51.716;7.016;2023-03-26T20:43:20;6.23;;;1.80;;
71836;SDS011;59686;51.716;7.016;2023-03-26T20:45:49;7.27;;;2.40;;
71836;SDS011;59686;51.716;7.016;2023-03-26T20:48:15;7.07;;;2.20;;
71836;SDS011;59686;51.716;7.016;2023-03-26T20:50:41;9.70;;;2.20;;
71836;SDS011;59686;51.716;7.016;2023-03-26T20:53:12;5.27;;;1.87;;
71836;SDS011;59686;51.716;7.016;2023-03-26T20:55:48;8.17;;;2.30;;
71836;SDS011;59686;51.716;7.016;2023-03-26T20:58:15;7.63;;;2.13;;
71836;SDS011;59686;51.716;7.016;2023-03-26T21:00:46;9.83;;;2.43;;
71836;SDS011;59686;51.716;7.016;2023-03-26T21:03:14;8.03;;;2.20;;
71836;SDS011;59686;51.716;7.016;2023-03-26T21:05:41;7.83;;;2.30;;
71836;SDS011;59686;51.716;7.016;2023-03-26T21:08:12;6.13;;;1.90;;
71836;SDS011;59686;51.716;7.016;2023-03-26T21:10:40;6.63;;;2.10;;